Solgohachia, Arkansas
Current Conditions -  °F | °C
As of 10:53 PM on Friday 19 Dec 2014 (Local Time) from KRUE Reporting Station
Overcast Overcast  
Wind Chill: 41°   Ceiling: 3300
Heat Index: 41°   Visibility: 10mi
Dew Point: 37°   Wind: 3mph
Humidity: 86%   Direction: 120°ESE
Pressure: 30.23"   Gusts: NA
Location:  35.26°N, 92.68°W
Report Text: KRUE 200453Z AUTO 12003KT 10SM OVC033 05/03 A3023 RMK AO2 SLP235 T00500028
Loading
Personal Weather Stations






























Interactive Weather Map New forecast layout! Learn more

10-Day Weather Forecast

Advertisements
Track Severe Weather on mobile